Time;durP1;ratioP1;P1;durP2;ratioP2;P2;SDS_P1;SDS_P2;PMS_P1;PMS_P2;Temp;Humidity;BMP_temperature;BMP_pressure;BME280_temperature;BME280_humidity;BME280_pressure;Samples;Min_cycle;Max_cycle;Signal;HPM_P1;HPM_P2
2023/05/12 00:01:40;;;;;;;14.75;9.00;;;;;;;12.85;100.00;100996.41;6099780;28;20367;-72
2023/05/12 00:04:36;;;;;;;17.85;9.27;;;;;;;12.71;100.00;100990.78;6098758;28;20025;-72
2023/05/12 00:07:31;;;;;;;16.10;9.97;;;;;;;12.75;100.00;101006.25;6099071;28;20468;-71
2023/05/12 00:10:27;;;;;;;18.90;10.53;;;;;;;12.65;100.00;100999.34;6099211;28;20274;-72
2023/05/12 00:13:22;;;;;;;17.60;11.13;;;;;;;12.67;100.00;101003.53;6098725;28;20361;-73
2023/05/12 00:16:18;;;;;;;15.68;10.15;;;;;;;12.56;100.00;100998.44;6099237;28;20036;-70
2023/05/12 00:19:15;;;;;;;14.37;9.80;;;;;;;12.60;100.00;101009.63;6098997;28;20582;-73
2023/05/12 00:22:10;;;;;;;13.88;8.77;;;;;;;12.51;100.00;101014.88;6099118;28;20025;-74
2023/05/12 00:25:06;;;;;;;14.65;9.30;;;;;;;12.59;100.00;101015.91;6098376;28;20025;-74
2023/05/12 00:28:01;;;;;;;16.90;9.38;;;;;;;12.48;100.00;101009.00;6087366;28;20029;-72
2023/05/12 00:31:00;;;;;;;13.37;8.57;;;;;;;12.31;100.00;101008.00;6098666;28;20033;-68
2023/05/12 00:33:55;;;;;;;15.38;9.38;;;;;;;12.31;100.00;101001.84;6097855;28;20016;-72
2023/05/12 00:36:51;;;;;;;20.00;10.70;;;;;;;12.26;100.00;101004.09;6098987;28;20468;-68
2023/05/12 00:39:46;;;;;;;17.37;10.00;;;;;;;12.30;100.00;101008.16;6098597;28;20098;-70
2023/05/12 00:42:42;;;;;;;17.23;10.70;;;;;;;12.14;100.00;100998.19;6098194;28;20036;-72
2023/05/12 00:45:37;;;;;;;19.98;9.98;;;;;;;12.41;100.00;101015.91;6098149;28;20363;-69
2023/05/12 00:48:33;;;;;;;19.10;9.63;;;;;;;12.50;100.00;101017.69;6098398;28;20029;-70
2023/05/12 00:51:28;;;;;;;21.52;11.30;;;;;;;12.50;100.00;101012.38;6096782;28;20036;-72
2023/05/12 00:54:27;;;;;;;16.47;10.00;;;;;;;12.36;100.00;101021.69;6096625;28;20438;-70
2023/05/12 00:57:24;;;;;;;20.30;10.73;;;;;;;12.38;100.00;101014.41;6098069;28;20264;-71
2023/05/12 01:00:20;;;;;;;19.25;11.35;;;;;;;12.27;100.00;101016.44;6098245;28;20036;-70
2023/05/12 01:03:16;;;;;;;19.65;10.57;;;;;;;12.28;100.00;101003.00;6097284;28;20025;-71
2023/05/12 01:06:15;;;;;;;21.83;11.68;;;;;;;12.46;100.00;100997.69;6096713;28;20053;-73
2023/05/12 01:09:11;;;;;;;20.17;11.02;;;;;;;12.47;100.00;101002.03;6096191;28;20484;-71
2023/05/12 01:12:06;;;;;;;19.35;11.38;;;;;;;12.34;100.00;100997.06;6097407;28;20097;-70
2023/05/12 01:15:01;;;;;;;18.73;10.95;;;;;;;12.33;100.00;101023.81;6097299;28;20468;-70
2023/05/12 01:18:00;;;;;;;20.58;11.70;;;;;;;12.65;100.00;101023.31;6097658;28;20029;-71
2023/05/12 01:20:56;;;;;;;22.75;12.40;;;;;;;12.66;100.00;101024.97;6096616;28;20029;-71
2023/05/12 01:23:56;;;;;;;18.85;10.75;;;;;;;12.42;100.00;101031.72;6096796;28;20033;-72
2023/05/12 01:26:51;;;;;;;18.83;11.10;;;;;;;12.17;100.00;101026.28;6097882;28;20384;-72
2023/05/12 01:29:47;;;;;;;23.50;12.67;;;;;;;12.17;100.00;101053.72;6088383;28;20044;-69
2023/05/12 01:32:42;;;;;;;21.42;11.77;;;;;;;12.09;100.00;101056.28;6097298;28;20025;-71
2023/05/12 01:35:38;;;;;;;19.42;11.73;;;;;;;12.03;100.00;101056.03;6096772;28;20146;-69
2023/05/12 01:38:33;;;;;;;21.17;12.17;;;;;;;12.07;100.00;101057.38;6097455;28;20036;-71
2023/05/12 01:41:28;;;;;;;21.63;11.93;;;;;;;12.12;100.00;101044.50;6097109;28;20100;-72
2023/05/12 01:44:23;;;;;;;21.47;11.97;;;;;;;12.39;100.00;101081.72;6096478;28;20044;-70
2023/05/12 01:47:20;;;;;;;22.50;14.03;;;;;;;12.42;100.00;101074.28;6097281;28;20467;-70
2023/05/12 01:50:15;;;;;;;22.85;12.23;;;;;;;12.42;100.00;101070.78;6097319;28;20037;-72
2023/05/12 01:53:11;;;;;;;22.57;13.73;;;;;;;12.35;100.00;101093.63;6096891;28;20036;-72
2023/05/12 01:56:06;;;;;;;22.70;12.32;;;;;;;12.31;100.00;101082.44;6100615;28;20264;-70
2023/05/12 01:59:01;;;;;;;21.73;12.20;;;;;;;12.12;100.00;101081.72;6102219;28;20042;-70
2023/05/12 02:01:57;;;;;;;19.63;10.77;;;;;;;11.97;100.00;101080.53;6101817;28;20476;-68
2023/05/12 02:04:52;;;;;;;19.97;12.13;;;;;;;11.98;100.00;101085.72;6102073;28;20036;-72
2023/05/12 02:07:47;;;;;;;19.73;11.17;;;;;;;11.98;100.00;101087.53;6102381;28;20115;-70
2023/05/12 02:10:43;;;;;;;21.08;12.20;;;;;;;11.85;100.00;101083.34;6113572;28;20036;-68
2023/05/12 02:13:38;;;;;;;19.63;11.50;;;;;;;11.77;100.00;101082.41;6106615;28;20468;-72
2023/05/12 02:16:33;;;;;;;23.50;12.10;;;;;;;12.07;100.00;101079.50;6101913;28;20033;-72
2023/05/12 02:19:29;;;;;;;23.60;13.33;;;;;;;11.94;100.00;101069.19;6100497;28;20035;-72
2023/05/12 02:22:25;;;;;;;24.20;12.90;;;;;;;12.08;100.00;101075.03;6101424;28;20464;-72
2023/05/12 02:25:21;;;;;;;25.38;13.13;;;;;;;12.11;100.00;101080.03;6101189;28;20111;-71
2023/05/12 02:28:16;;;;;;;23.02;13.15;;;;;;;12.10;100.00;101078.34;6101575;28;20033;-70
2023/05/12 02:31:11;;;;;;;28.57;15.83;;;;;;;12.11;100.00;101072.06;6101213;28;20037;-70
2023/05/12 02:34:07;;;;;;;21.90;13.60;;;;;;;12.11;100.00;101061.44;6100793;28;20024;-69
2023/05/12 02:37:02;;;;;;;28.33;14.90;;;;;;;12.07;100.00;101070.69;6101382;28;20029;-71
2023/05/12 02:39:58;;;;;;;31.65;15.95;;;;;;;12.16;100.00;101070.66;6101296;28;20025;-72
2023/05/12 02:42:53;;;;;;;27.20;14.97;;;;;;;12.23;100.00;101057.63;6101153;28;20115;-69
2023/05/12 02:45:48;;;;;;;24.77;14.70;;;;;;;12.16;100.00;101043.22;6100325;28;20460;-73
2023/05/12 02:48:44;;;;;;;27.88;15.60;;;;;;;12.09;100.00;101050.13;6101122;28;20035;-71
2023/05/12 02:51:39;;;;;;;29.73;16.67;;;;;;;12.25;100.00;101060.94;6102064;28;20041;-70
2023/05/12 02:54:35;;;;;;;26.63;14.70;;;;;;;12.23;100.00;101068.25;6100671;28;20021;-70
2023/05/12 02:57:32;;;;;;;25.15;14.90;;;;;;;12.13;100.00;101056.81;6102260;28;20033;-72
2023/05/12 03:00:28;;;;;;;28.05;15.98;;;;;;;12.05;100.00;101051.38;6114485;28;20028;-73
2023/05/12 03:03:23;;;;;;;25.50;15.03;;;;;;;12.17;100.00;101069.69;6108766;28;20033;-71
2023/05/12 03:06:18;;;;;;;27.97;14.57;;;;;;;12.05;100.00;101054.88;6100607;28;20021;-70
2023/05/12 03:09:13;;;;;;;25.47;13.83;;;;;;;12.12;100.00;101060.47;6100224;28;20021;-72
2023/05/12 03:12:09;;;;;;;24.67;13.77;;;;;;;11.97;100.00;101051.28;6099791;28;20087;-73
2023/05/12 03:15:05;;;;;;;28.93;15.43;;;;;;;12.08;100.00;101061.72;6100033;28;20071;-72
2023/05/12 03:18:01;;;;;;;26.65;15.20;;;;;;;12.04;100.00;101071.00;6093869;28;20025;-70
2023/05/12 03:20:56;;;;;;;31.25;15.48;;;;;;;11.86;100.00;101061.13;6099842;28;20487;-73
2023/05/12 03:23:52;;;;;;;30.33;15.60;;;;;;;11.79;100.00;101069.84;6099893;28;20516;-70
2023/05/12 03:26:47;;;;;;;30.70;16.92;;;;;;;11.72;100.00;101074.03;6100142;28;20350;-68
2023/05/12 03:29:42;;;;;;;31.40;17.05;;;;;;;11.71;100.00;101072.38;6105408;28;20056;-69
2023/05/12 03:32:38;;;;;;;29.17;15.97;;;;;;;11.59;100.00;101086.75;6111231;28;20464;-70
2023/05/12 03:35:33;;;;;;;28.88;15.38;;;;;;;11.69;100.00;101093.75;6101900;28;20264;-69
2023/05/12 03:38:28;;;;;;;26.33;15.35;;;;;;;11.75;100.00;101095.84;6098953;28;20527;-70
2023/05/12 03:41:24;;;;;;;30.40;15.38;;;;;;;11.68;100.00;101097.38;6099319;28;20086;-71
2023/05/12 03:44:20;;;;;;;24.92;13.75;;;;;;;11.64;100.00;101073.88;6099908;28;20157;-72
2023/05/12 03:47:15;;;;;;;27.50;14.88;;;;;;;11.76;100.00;101094.88;6099879;28;20048;-73
2023/05/12 03:50:11;;;;;;;28.33;14.38;;;;;;;11.68;100.00;101084.09;6099780;28;20025;-72
2023/05/12 03:53:06;;;;;;;22.63;13.82;;;;;;;11.65;100.00;101083.53;6099757;28;20040;-72
2023/05/12 03:56:05;;;;;;;23.97;13.87;;;;;;;11.59;100.00;101114.16;6098380;28;20108;-72
2023/05/12 03:59:00;;;;;;;25.38;13.10;;;;;;;11.60;100.00;101091.94;6099855;28;20739;-71
2023/05/12 04:01:56;;;;;;;22.77;12.83;;;;;;;11.53;100.00;101090.81;6099386;28;20048;-69
2023/05/12 04:04:51;;;;;;;23.03;12.70;;;;;;;11.51;100.00;101108.72;6098909;28;20025;-72
2023/05/12 04:07:47;;;;;;;21.53;12.10;;;;;;;11.54;100.00;101092.50;6099162;28;20049;-72
2023/05/12 04:10:42;;;;;;;18.58;11.40;;;;;;;11.64;100.00;101103.94;6099025;28;20771;-69
2023/05/12 04:13:37;;;;;;;17.97;10.77;;;;;;;11.63;100.00;101118.19;6098701;28;20045;-72
2023/05/12 04:16:34;;;;;;;17.07;10.57;;;;;;;11.63;100.00;101102.25;6093762;28;20032;-69
2023/05/12 04:19:29;;;;;;;17.20;10.57;;;;;;;11.75;100.00;101117.09;6096833;28;20039;-71
2023/05/12 04:22:25;;;;;;;18.27;10.27;;;;;;;11.70;100.00;101111.38;6099395;28;20033;-70
2023/05/12 04:25:20;;;;;;;16.48;9.75;;;;;;;11.70;100.00;101103.41;6098196;28;20118;-69
2023/05/12 04:28:15;;;;;;;15.53;10.17;;;;;;;11.78;100.00;101106.19;6098609;28;20027;-71
2023/05/12 04:31:11;;;;;;;16.07;9.70;;;;;;;11.94;100.00;101129.50;6099307;28;20468;-71
2023/05/12 04:34:06;;;;;;;16.33;9.47;;;;;;;11.78;100.00;101114.16;6100565;28;20047;-68
2023/05/12 04:37:01;;;;;;;16.60;10.05;;;;;;;11.93;100.00;101131.31;6115092;28;20032;-70
2023/05/12 04:39:56;;;;;;;17.93;9.63;;;;;;;11.99;100.00;101134.34;6098503;28;20035;-72
2023/05/12 04:42:52;;;;;;;16.07;9.47;;;;;;;12.04;100.00;101122.31;6098616;28;20095;-71
2023/05/12 04:45:49;;;;;;;15.27;9.10;;;;;;;12.02;100.00;101123.44;6098105;28;20029;-69
2023/05/12 04:48:45;;;;;;;12.93;7.70;;;;;;;12.17;100.00;101127.31;6098412;28;20029;-71
2023/05/12 04:51:41;;;;;;;13.82;8.13;;;;;;;12.25;100.00;101119.44;6098707;28;20035;-71
2023/05/12 04:54:37;;;;;;;14.70;8.55;;;;;;;12.29;100.00;101136.78;6097645;28;20036;-70
2023/05/12 04:57:33;;;;;;;13.70;8.07;;;;;;;12.17;100.00;101132.63;6098545;28;20025;-69
2023/05/12 05:00:28;;;;;;;12.03;6.97;;;;;;;12.33;100.00;101144.34;6098078;28;20056;-72
2023/05/12 05:03:23;;;;;;;11.40;7.53;;;;;;;12.37;100.00;101147.50;6097937;28;20100;-70
2023/05/12 05:06:18;;;;;;;11.67;7.33;;;;;;;12.46;100.00;101133.34;6098109;28;20036;-72
2023/05/12 05:09:14;;;;;;;13.50;7.67;;;;;;;12.58;100.00;101149.94;6097740;28;20040;-69
2023/05/12 05:12:09;;;;;;;14.80;6.93;;;;;;;12.61;100.00;101142.50;6097921;28;20370;-68
2023/05/12 05:15:05;;;;;;;12.17;6.93;;;;;;;12.58;100.00;101139.31;6097375;28;20032;-69
2023/05/12 05:18:00;;;;;;;8.63;6.38;;;;;;;12.62;100.00;101157.47;6091020;28;20025;-71
2023/05/12 05:20:56;;;;;;;10.60;7.03;;;;;;;12.67;100.00;101159.69;6097459;28;20033;-72
2023/05/12 05:23:51;;;;;;;15.60;7.73;;;;;;;12.70;100.00;101160.22;6096989;28;20376;-69
2023/05/12 05:26:47;;;;;;;10.80;6.45;;;;;;;12.74;100.00;101160.78;6097886;28;20456;-71
2023/05/12 05:29:42;;;;;;;9.07;6.40;;;;;;;12.67;100.00;101151.69;6096474;28;20380;-70
2023/05/12 05:32:39;;;;;;;10.90;6.57;;;;;;;12.58;100.00;101150.78;6098019;28;20033;-71
2023/05/12 05:35:34;;;;;;;9.63;6.63;;;;;;;12.74;100.00;101169.59;6097136;28;20055;-69
2023/05/12 05:38:29;;;;;;;10.50;6.10;;;;;;;12.70;100.00;101157.56;6097229;28;20036;-71
2023/05/12 05:41:25;;;;;;;10.27;6.10;;;;;;;12.94;100.00;101152.50;6097892;28;20376;-71
2023/05/12 05:44:20;;;;;;;11.87;6.23;;;;;;;13.00;100.00;101177.69;6096523;28;20028;-69
2023/05/12 05:47:15;;;;;;;10.73;6.97;;;;;;;13.04;100.00;101166.59;6097543;28;20029;-71
2023/05/12 05:50:11;;;;;;;13.87;5.60;;;;;;;13.20;100.00;101183.78;6097221;28;20037;-69
2023/05/12 05:53:06;;;;;;;8.38;5.80;;;;;;;13.22;100.00;101171.13;6097286;28;20444;-69
2023/05/12 05:56:01;;;;;;;8.77;5.47;;;;;;;13.39;100.00;101192.47;6096827;28;20021;-71
2023/05/12 05:59:01;;;;;;;9.57;5.13;;;;;;;13.17;100.00;101168.09;6096989;28;20371;-69
2023/05/12 06:01:56;;;;;;;12.60;5.95;;;;;;;13.19;100.00;101192.75;6097379;28;20111;-70
2023/05/12 06:04:52;;;;;;;8.38;5.05;;;;;;;13.39;100.00;101196.94;6096805;28;20746;-69
2023/05/12 06:07:47;;;;;;;9.87;5.70;;;;;;;13.39;100.00;101184.47;6097184;28;20035;-71
2023/05/12 06:10:42;;;;;;;8.97;5.07;;;;;;;13.77;98.22;101169.97;6096996;28;20364;-70
2023/05/12 06:13:37;;;;;;;10.20;5.47;;;;;;;13.83;98.44;101189.81;6096694;28;20082;-69
2023/05/12 06:16:33;;;;;;;13.87;5.20;;;;;;;13.85;96.88;101195.84;6097203;28;20032;-68
2023/05/12 06:19:28;;;;;;;9.10;5.70;;;;;;;13.91;96.36;101193.41;6096982;28;20035;-71
2023/05/12 06:22:23;;;;;;;8.77;5.40;;;;;;;14.04;95.26;101215.16;6096915;28;20032;-70
2023/05/12 06:25:19;;;;;;;7.72;5.10;;;;;;;13.89;96.53;101210.53;6096607;28;20025;-71
2023/05/12 06:28:14;;;;;;;7.80;4.90;;;;;;;13.84;95.96;101208.31;6097033;28;20037;-70
2023/05/12 06:31:09;;;;;;;7.90;5.20;;;;;;;13.80;94.97;101209.63;6097100;28;20035;-68
2023/05/12 06:34:05;;;;;;;9.83;4.77;;;;;;;14.05;94.73;101205.31;6096343;28;20033;-71
2023/05/12 06:37:00;;;;;;;7.57;4.70;;;;;;;14.22;91.91;101220.41;6096931;28;20040;-70
2023/05/12 06:39:55;;;;;;;10.47;4.70;;;;;;;14.25;88.90;101218.28;6096779;28;20044;-69
2023/05/12 06:42:51;;;;;;;11.05;4.95;;;;;;;14.38;88.84;101233.91;6101365;28;20021;-72
2023/05/12 06:45:46;;;;;;;6.13;3.93;;;;;;;14.60;87.48;101235.19;6101027;28;20491;-71
2023/05/12 06:48:42;;;;;;;7.57;4.30;;;;;;;14.74;86.26;101229.25;6101258;28;20032;-68
2023/05/12 06:51:37;;;;;;;8.10;5.17;;;;;;;14.64;87.56;101218.72;6101180;28;20475;-68
2023/05/12 06:54:32;;;;;;;12.00;4.80;;;;;;;14.57;90.30;101217.66;6100687;28;20953;-72
2023/05/12 06:57:28;;;;;;;10.40;5.37;;;;;;;14.35;90.07;101238.72;6100964;28;20088;-71
2023/05/12 07:00:24;;;;;;;7.00;4.50;;;;;;;15.02;88.89;101237.88;6101304;28;20344;-69
2023/05/12 07:03:20;;;;;;;6.65;4.10;;;;;;;15.22;86.15;101229.41;6100602;28;20078;-72
2023/05/12 07:06:15;;;;;;;7.70;4.82;;;;;;;15.07;85.00;101228.38;6100528;28;20025;-70
2023/05/12 07:09:10;;;;;;;7.37;4.90;;;;;;;14.97;84.47;101219.69;6100634;28;20037;-70
2023/05/12 07:12:06;;;;;;;8.17;4.50;;;;;;;15.08;83.12;101226.56;6100476;28;20048;-69
2023/05/12 07:15:01;;;;;;;6.35;4.35;;;;;;;15.46;79.33;101232.16;6100136;28;20028;-72
2023/05/12 07:17:57;;;;;;;7.53;4.55;;;;;;;15.45;80.31;101219.78;6100310;28;20508;-68
2023/05/12 07:20:52;;;;;;;8.43;4.43;;;;;;;15.56;78.58;101220.47;6099736;28;20110;-69
2023/05/12 07:23:47;;;;;;;7.63;4.97;;;;;;;15.37;77.81;101235.81;6098189;28;20152;-69
2023/05/12 07:26:43;;;;;;;15.38;5.93;;;;;;;15.43;79.19;101226.31;6099835;28;20025;-72
2023/05/12 07:29:38;;;;;;;11.18;5.13;;;;;;;15.36;78.50;101236.78;6099971;28;20357;-71
2023/05/12 07:32:33;;;;;;;8.27;5.17;;;;;;;15.67;76.94;101217.50;6099776;28;20036;-71
2023/05/12 07:35:29;;;;;;;9.03;5.20;;;;;;;15.61;78.67;101237.69;6099760;28;20017;-71
2023/05/12 07:38:25;;;;;;;8.52;5.15;;;;;;;15.47;79.56;101238.34;6099849;28;20530;-70
2023/05/12 07:41:20;;;;;;;8.73;5.33;;;;;;;15.43;78.50;101227.13;6099391;28;20033;-69
2023/05/12 07:44:16;;;;;;;6.87;4.57;;;;;;;15.95;79.31;101237.56;6099421;28;20051;-69
2023/05/12 07:47:11;;;;;;;9.15;5.55;;;;;;;16.11;76.52;101223.31;6099496;28;20017;-70
2023/05/12 07:50:06;;;;;;;10.57;5.23;;;;;;;15.75;76.93;101215.66;6099607;28;20040;-72
2023/05/12 07:53:03;;;;;;;13.77;4.80;;;;;;;16.26;76.04;101227.81;6098565;28;20048;-70
2023/05/12 07:55:58;;;;;;;11.90;5.65;;;;;;;16.37;74.56;101226.63;6098735;28;20161;-69
2023/05/12 07:58:53;;;;;;;16.00;6.07;;;;;;;16.58;74.74;101219.72;6099421;28;20025;-68
2023/05/12 08:01:48;;;;;;;8.80;5.43;;;;;;;16.99;74.86;101215.03;6099166;28;20086;-71
2023/05/12 08:04:44;;;;;;;9.60;5.57;;;;;;;17.04;72.71;101226.06;6099128;28;20024;-69
2023/05/12 08:07:42;;;;;;;8.83;5.23;;;;;;;17.49;70.03;101221.78;6099195;28;20037;-70
2023/05/12 08:10:37;;;;;;;9.20;5.47;;;;;;;17.61;71.03;101217.72;6098826;28;20027;-71
2023/05/12 08:13:32;;;;;;;11.20;6.67;;;;;;;17.62;69.26;101230.94;6098817;28;20040;-71
2023/05/12 08:16:28;;;;;;;8.87;5.63;;;;;;;17.79;69.70;101220.91;6099339;28;20420;-73
2023/05/12 08:19:23;;;;;;;8.57;4.90;;;;;;;17.96;69.13;101216.25;6099407;28;20033;-71
2023/05/12 08:22:18;;;;;;;11.00;5.30;;;;;;;18.13;67.46;101228.47;6099142;28;20075;-69
2023/05/12 08:25:14;;;;;;;9.03;5.17;;;;;;;18.59;68.66;101230.03;6098541;28;20111;-72
2023/05/12 08:28:11;;;;;;;10.57;5.40;;;;;;;18.13;69.92;101223.09;6099132;28;20098;-71
2023/05/12 08:31:06;;;;;;;8.98;5.28;;;;;;;18.38;67.38;101216.47;6098572;28;20075;-72
2023/05/12 08:34:02;;;;;;;10.27;5.07;;;;;;;18.47;66.47;101227.97;6098267;28;20380;-71
2023/05/12 08:36:57;;;;;;;9.77;5.47;;;;;;;18.74;65.50;101221.97;6098419;28;20375;-71
2023/05/12 08:39:52;;;;;;;9.57;5.82;;;;;;;19.09;64.35;101236.47;6097935;28;20119;-69
2023/05/12 08:43:06;;;;;;;10.82;5.53;;;;;;;18.81;66.25;101239.00;6097304;28;20029;-71
2023/05/12 08:46:01;;;;;;;8.35;5.25;;;;;;;18.78;65.91;101232.16;6097645;28;20151;-70
2023/05/12 08:48:58;;;;;;;8.77;5.60;;;;;;;18.81;64.54;101214.81;6097057;28;20045;-72
2023/05/12 08:51:53;;;;;;;9.98;5.72;;;;;;;18.95;64.99;101230.94;6098465;28;20388;-71
2023/05/12 08:54:49;;;;;;;12.23;6.80;;;;;;;19.15;63.49;101219.59;6096931;28;20060;-71
2023/05/12 08:57:47;;;;;;;12.25;6.30;;;;;;;19.11;63.19;101239.81;6096856;28;20040;-70
2023/05/12 09:00:43;;;;;;;10.07;5.60;;;;;;;19.55;60.67;101230.63;6098191;28;20100;-72
2023/05/12 09:03:38;;;;;;;9.70;5.78;;;;;;;19.58;60.19;101229.41;6096672;28;20422;-71
2023/05/12 09:06:33;;;;;;;8.77;5.37;;;;;;;19.60;57.98;101217.44;6095059;28;20057;-70
2023/05/12 09:09:31;;;;;;;10.82;5.55;;;;;;;19.73;59.61;101224.78;6094023;28;20059;-71
2023/05/12 09:12:30;;;;;;;9.27;5.30;;;;;;;20.14;60.07;101236.53;6097109;28;20064;-69
2023/05/12 09:15:33;;;;;;;9.15;5.28;;;;;;;20.27;56.58;101213.47;6096954;28;20025;-70
2023/05/12 09:18:43;;;;;;;11.65;6.93;;;;;;;19.56;57.73;101223.41;6096923;28;20175;-72
2023/05/12 09:21:39;;;;;;;11.25;6.00;;;;;;;19.51;61.46;101232.03;6097780;28;20036;-71
2023/05/12 09:24:35;;;;;;;9.30;5.38;;;;;;;19.42;60.43;101240.41;6097298;28;20368;-72
2023/05/12 09:27:30;;;;;;;7.22;4.60;;;;;;;19.48;57.66;101220.84;6097687;28;20029;-72
2023/05/12 09:30:30;;;;;;;9.67;5.43;;;;;;;19.41;56.70;101238.75;6114119;28;20561;-68
2023/05/12 09:33:25;;;;;;;7.60;4.35;;;;;;;19.43;56.39;101236.72;6099116;28;20780;-69
2023/05/12 09:36:22;;;;;;;8.80;3.97;;;;;;;19.93;57.79;101247.34;6097725;28;20032;-70
2023/05/12 09:39:17;;;;;;;11.75;5.40;;;;;;;19.78;55.50;101235.00;6097850;28;20028;-72
2023/05/12 09:42:14;;;;;;;9.47;5.10;;;;;;;20.12;57.01;101245.84;6097583;28;20035;-72
2023/05/12 09:45:10;;;;;;;7.78;4.75;;;;;;;20.30;56.72;101240.81;6096995;28;20111;-69
2023/05/12 09:48:12;;;;;;;9.70;4.45;;;;;;;20.42;54.22;101249.19;6097242;28;20029;-70
2023/05/12 09:51:09;;;;;;;9.25;5.20;;;;;;;20.32;54.57;101240.66;6097698;28;20434;-69
2023/05/12 09:54:05;;;;;;;10.13;4.68;;;;;;;20.39;55.40;101245.03;6096946;28;20078;-71
2023/05/12 09:57:03;;;;;;;7.88;4.63;;;;;;;20.60;53.23;101244.97;6097028;28;20025;-71
2023/05/12 09:59:59;;;;;;;7.43;4.30;;;;;;;20.33;52.58;101232.34;6097543;28;20036;-70
2023/05/12 10:02:55;;;;;;;10.18;4.57;;;;;;;20.58;51.60;101254.28;6097295;28;20025;-70
2023/05/12 10:05:57;;;;;;;6.65;3.75;;;;;;;20.38;50.18;101234.47;6096240;28;20669;-71
2023/05/12 10:08:55;;;;;;;12.05;4.30;;;;;;;20.78;52.14;101244.47;6096896;28;20037;-70
2023/05/12 10:11:50;;;;;;;9.13;4.22;;;;;;;20.79;51.04;101238.00;6097758;28;20527;-71
2023/05/12 10:14:46;;;;;;;7.28;4.65;;;;;;;20.67;50.24;101251.25;6096656;28;20032;-71
2023/05/12 10:17:43;;;;;;;7.40;4.40;;;;;;;20.43;49.63;101240.09;6093063;28;20028;-70
2023/05/12 10:20:38;;;;;;;9.20;4.50;;;;;;;20.86;51.87;101254.25;6102206;28;20403;-69
2023/05/12 10:23:34;;;;;;;7.53;4.00;;;;;;;20.93;48.41;101261.31;6100748;28;20064;-70
2023/05/12 10:26:34;;;;;;;8.93;3.80;;;;;;;21.08;48.05;101236.94;6101384;28;20025;-71
2023/05/12 10:29:31;;;;;;;5.43;3.90;;;;;;;21.13;48.50;101256.06;6101542;28;20043;-73
2023/05/12 10:32:27;;;;;;;7.63;4.35;;;;;;;21.34;48.30;101232.47;6101343;28;20417;-71
2023/05/12 10:35:31;;;;;;;7.43;4.03;;;;;;;21.41;45.57;101239.75;6099714;28;20029;-69
2023/05/12 10:38:34;;;;;;;6.82;3.55;;;;;;;21.46;45.63;101248.06;6095977;28;20580;-71
2023/05/12 10:41:31;;;;;;;6.97;3.67;;;;;;;21.40;44.94;101243.47;6101613;28;20028;-73
2023/05/12 10:44:27;;;;;;;6.78;3.50;;;;;;;21.50;44.28;101243.94;6100599;28;20353;-69
2023/05/12 10:47:25;;;;;;;8.23;4.00;;;;;;;21.47;45.01;101252.44;6101270;28;20483;-69
2023/05/12 10:50:29;;;;;;;8.40;4.00;;;;;;;21.56;46.86;101252.03;6101160;28;20039;-71
2023/05/12 10:53:32;;;;;;;6.82;3.83;;;;;;;21.98;44.74;101250.88;6100396;28;20353;-68
2023/05/12 10:56:29;;;;;;;9.77;4.45;;;;;;;22.00;45.08;101238.00;6100738;28;20064;-72
2023/05/12 10:59:28;;;;;;;7.75;3.72;;;;;;;21.93;43.71;101242.59;6100883;28;20029;-72
2023/05/12 11:02:29;;;;;;;7.55;4.03;;;;;;;22.12;44.19;101224.72;6100938;28;20032;-71
2023/05/12 11:05:33;;;;;;;8.20;3.60;;;;;;;22.05;41.60;101229.25;6100160;28;20048;-72
2023/05/12 11:08:30;;;;;;;6.90;3.20;;;;;;;22.22;43.13;101215.13;6097118;28;20029;-72
2023/05/12 11:11:27;;;;;;;6.57;3.05;;;;;;;22.41;43.56;101218.84;6100623;28;20025;-68
2023/05/12 11:14:23;;;;;;;6.13;3.70;;;;;;;22.21;41.55;101228.84;6098885;28;20037;-71
2023/05/12 11:17:18;;;;;;;6.60;3.63;;;;;;;22.07;41.73;101205.59;6099076;28;20105;-70
2023/05/12 11:20:23;;;;;;;5.47;3.17;;;;;;;21.74;40.29;101221.75;6100434;28;20462;-71
2023/05/12 11:23:28;;;;;;;6.88;3.80;;;;;;;21.51;42.82;101213.19;6099728;28;20274;-70
2023/05/12 11:26:23;;;;;;;5.65;3.47;;;;;;;21.75;41.98;101218.00;6099500;28;20474;-72
2023/05/12 11:29:19;;;;;;;5.00;3.30;;;;;;;21.79;40.72;101216.56;6099324;28;20040;-72
2023/05/12 11:32:14;;;;;;;5.53;3.47;;;;;;;21.90;41.33;101213.28;6099963;28;20032;-70
2023/05/12 11:35:12;;;;;;;5.43;3.40;;;;;;;22.11;40.87;101218.47;6099598;28;20021;-70
2023/05/12 11:38:18;;;;;;;8.32;3.53;;;;;;;21.79;40.46;101214.69;6099877;28;20155;-68
2023/05/12 11:41:13;;;;;;;6.35;3.15;;;;;;;21.44;41.57;101217.75;6099885;28;20476;-70
2023/05/12 11:44:18;;;;;;;6.80;3.50;;;;;;;21.67;42.44;101223.59;6098814;28;20032;-70
2023/05/12 11:47:14;;;;;;;7.13;3.33;;;;;;;21.45;40.80;101222.94;6099054;28;20102;-71
2023/05/12 11:50:09;;;;;;;7.32;3.20;;;;;;;21.12;40.93;101222.84;6099090;28;20079;-70
2023/05/12 11:53:09;;;;;;;7.90;3.03;;;;;;;20.92;41.17;101210.31;6099789;28;20033;-70
2023/05/12 11:56:04;;;;;;;5.05;3.22;;;;;;;21.18;41.35;101211.25;6103379;28;20325;-68
2023/05/12 11:58:59;;;;;;;5.50;3.47;;;;;;;21.15;42.39;101233.25;6110760;28;20025;-72
2023/05/12 12:01:59;;;;;;;9.37;3.17;;;;;;;21.70;41.17;101217.78;6099358;28;20036;-72
2023/05/12 12:04:55;;;;;;;6.18;3.20;;;;;;;22.61;39.64;101221.50;6098942;28;20029;-70
2023/05/12 12:07:50;;;;;;;6.53;3.33;;;;;;;22.90;37.99;101218.31;6098303;28;20086;-72
2023/05/12 12:10:45;;;;;;;7.00;4.07;;;;;;;22.64;35.95;101202.19;6099705;28;20032;-71
2023/05/12 12:13:47;;;;;;;5.25;2.88;;;;;;;22.02;36.50;101225.09;6098541;28;20029;-71
2023/05/12 12:16:43;;;;;;;4.78;2.70;;;;;;;21.49;36.13;101224.22;6099128;28;20126;-71
2023/05/12 12:19:38;;;;;;;7.57;3.07;;;;;;;21.53;36.42;101222.75;6099164;28;20033;-70
2023/05/12 12:22:34;;;;;;;5.57;2.50;;;;;;;22.11;35.97;101213.06;6098937;28;20051;-72
2023/05/12 12:25:30;;;;;;;4.47;2.50;;;;;;;22.66;35.44;101216.31;6098456;28;20267;-71
2023/05/12 12:28:25;;;;;;;7.50;2.75;;;;;;;22.89;34.06;101216.63;6098538;28;20149;-71
2023/05/12 12:31:20;;;;;;;6.03;2.40;;;;;;;22.90;32.27;101207.50;6098936;28;20040;-71
2023/05/12 12:34:15;;;;;;;8.87;2.20;;;;;;;23.22;32.28;101214.63;6098398;28;20046;-71
2023/05/12 12:37:11;;;;;;;5.93;2.50;;;;;;;23.49;32.38;101218.03;6098266;28;20040;-71
2023/05/12 12:40:07;;;;;;;5.30;2.22;;;;;;;23.72;29.29;101212.88;6098092;28;20024;-72
2023/05/12 12:43:02;;;;;;;4.72;2.10;;;;;;;24.11;30.79;101200.91;6098127;28;20029;-72
2023/05/12 12:45:57;;;;;;;5.53;2.40;;;;;;;23.63;30.30;101211.47;6097380;28;20479;-69
2023/05/12 12:48:53;;;;;;;3.67;2.10;;;;;;;23.38;30.06;101213.31;6098322;28;20059;-71
2023/05/12 12:51:48;;;;;;;5.80;2.43;;;;;;;23.43;29.17;101218.91;6098005;28;20032;-72
2023/05/12 12:54:44;;;;;;;6.07;2.30;;;;;;;23.52;30.21;101204.88;6097552;28;20036;-73
2023/05/12 12:57:39;;;;;;;5.10;2.30;;;;;;;23.70;30.10;101198.72;6097743;28;20032;-72
2023/05/12 13:00:35;;;;;;;6.05;2.20;;;;;;;23.81;28.77;101192.56;6098389;28;20036;-69
2023/05/12 13:03:30;;;;;;;6.32;2.85;;;;;;;23.93;28.03;101203.53;6097418;28;20017;-69
2023/05/12 13:06:26;;;;;;;5.37;2.37;;;;;;;24.16;27.16;101192.94;6097313;28;20041;-71
2023/05/12 13:09:21;;;;;;;3.47;2.28;;;;;;;24.47;27.81;101200.97;6097355;28;20112;-70
2023/05/12 13:12:17;;;;;;;5.53;2.28;;;;;;;24.57;27.86;101190.41;6097639;28;20036;-72
2023/05/12 13:15:12;;;;;;;4.97;2.23;;;;;;;24.44;27.16;101206.81;6097538;28;20083;-70
2023/05/12 13:18:08;;;;;;;7.03;2.42;;;;;;;24.31;27.73;101188.00;6097634;28;20048;-69
2023/05/12 13:21:04;;;;;;;6.73;2.73;;;;;;;23.98;28.37;101190.16;6097675;28;20059;-69
2023/05/12 13:23:59;;;;;;;4.82;2.40;;;;;;;23.93;28.13;101190.00;6095775;28;20025;-69
2023/05/12 13:26:55;;;;;;;5.72;2.50;;;;;;;24.22;27.63;101194.75;6097096;28;20111;-71